Time;durP1;ratioP1;P1;durP2;ratioP2;P2;SDS_P1;SDS_P2;PMS_P1;PMS_P2;Temp;Humidity;BMP_temperature;BMP_pressure;BME280_temperature;BME280_humidity;BME280_pressure;Samples;Min_cycle;Max_cycle;Signal;HPM_P1;HPM_P2
2023/07/03 00:00:42;;;;;;;10.07;5.80;;;14.30;99.90;;;;;;5013042;28;20199;-85
2023/07/03 00:03:14;;;;;;;10.10;6.15;;;14.30;99.90;;;;;;4992404;28;20697;-85
2023/07/03 00:05:49;;;;;;;19.45;6.68;;;14.40;99.90;;;;;;4991882;28;20210;-84
2023/07/03 00:08:22;;;;;;;14.40;6.32;;;14.40;99.90;;;;;;4991861;28;20205;-85
2023/07/03 00:11:00;;;;;;;9.98;5.45;;;14.40;99.90;;;;;;5008301;28;20209;-85
2023/07/03 00:13:31;;;;;;;10.40;5.55;;;14.50;99.90;;;;;;5019440;28;20202;-85
2023/07/03 00:16:03;;;;;;;12.02;5.90;;;14.70;99.90;;;;;;5018810;28;20602;-85
2023/07/03 00:18:34;;;;;;;11.25;6.38;;;14.80;99.90;;;;;;5011299;28;20212;-85
2023/07/03 00:21:05;;;;;;;10.25;5.80;;;14.80;99.90;;;;;;5011213;28;20197;-85
2023/07/03 00:23:38;;;;;;;12.07;6.18;;;14.90;99.90;;;;;;5005646;28;20205;-85
2023/07/03 00:26:10;;;;;;;11.18;6.25;;;15.00;99.90;;;;;;5006271;28;20198;-84
2023/07/03 00:28:45;;;;;;;16.67;6.18;;;15.10;99.90;;;;;;5011278;28;20213;-85
2023/07/03 00:31:17;;;;;;;14.98;6.97;;;15.20;99.90;;;;;;5011192;28;20259;-84
2023/07/03 00:33:48;;;;;;;11.55;6.35;;;15.30;99.90;;;;;;5011674;28;20669;-84
2023/07/03 00:36:20;;;;;;;11.63;6.43;;;15.30;99.90;;;;;;5010085;28;20240;-85
2023/07/03 00:38:57;;;;;;;12.50;6.30;;;15.30;99.90;;;;;;5011585;28;20194;-85
2023/07/03 00:41:29;;;;;;;10.75;5.85;;;15.40;99.90;;;;;;5011917;28;20220;-85
2023/07/03 00:44:04;;;;;;;11.85;6.10;;;15.50;99.90;;;;;;5022520;28;20198;-85
2023/07/03 00:46:35;;;;;;;16.13;6.18;;;15.50;99.90;;;;;;5035452;28;20677;-86
2023/07/03 00:49:07;;;;;;;13.77;6.10;;;15.60;99.90;;;;;;5032318;28;20230;-85
2023/07/03 00:51:38;;;;;;;11.10;5.93;;;15.70;99.90;;;;;;5014749;28;20225;-86
2023/07/03 00:54:11;;;;;;;14.10;6.00;;;15.80;99.90;;;;;;5034952;28;20208;-86
2023/07/03 00:56:43;;;;;;;10.80;5.78;;;15.90;99.90;;;;;;5017866;28;20571;-85
2023/07/03 00:59:15;;;;;;;12.52;6.00;;;15.90;99.90;;;;;;5005179;28;20657;-85
2023/07/03 01:01:51;;;;;;;9.98;5.65;;;16.10;99.90;;;;;;5015182;28;20293;-86
2023/07/03 01:04:27;;;;;;;10.70;6.30;;;16.10;99.90;;;;;;5015125;28;20205;-85
2023/07/03 01:07:04;;;;;;;13.25;6.65;;;16.20;99.90;;;;;;5013844;28;20209;-86
2023/07/03 01:09:42;;;;;;;12.38;6.03;;;16.30;99.90;;;;;;5014785;28;20200;-86
2023/07/03 01:12:14;;;;;;;12.98;6.25;;;16.40;99.90;;;;;;5015168;28;20202;-86
2023/07/03 01:14:46;;;;;;;14.38;6.55;;;16.60;99.90;;;;;;5014544;28;20206;-86
2023/07/03 01:17:18;;;;;;;13.98;6.47;;;16.60;99.90;;;;;;5014100;28;20661;-86
2023/07/03 01:19:52;;;;;;;15.05;6.30;;;16.60;99.90;;;;;;5011333;28;20201;-86
2023/07/03 01:22:27;;;;;;;11.13;5.95;;;16.60;99.90;;;;;;5015183;28;20198;-86
2023/07/03 01:25:03;;;;;;;13.52;5.97;;;16.60;99.90;;;;;;5026312;28;20227;-85
2023/07/03 01:27:38;;;;;;;13.68;5.68;;;16.60;99.90;;;;;;5018433;28;20233;-85
2023/07/03 01:30:12;;;;;;;11.63;5.93;;;16.60;99.90;;;;;;5016129;28;20197;-85
2023/07/03 01:32:46;;;;;;;11.98;5.97;;;16.60;99.90;;;;;;5010238;28;20212;-85
2023/07/03 01:35:19;;;;;;;12.13;5.72;;;16.70;99.90;;;;;;5002104;28;20233;-86
2023/07/03 01:37:53;;;;;;;11.80;6.05;;;16.80;99.90;;;;;;5014837;28;20201;-84
2023/07/03 01:40:28;;;;;;;9.23;5.25;;;16.90;99.90;;;;;;5013835;28;20285;-86
2023/07/03 01:43:00;;;;;;;11.32;5.28;;;16.90;99.90;;;;;;5007474;28;20220;-86
2023/07/03 01:45:32;;;;;;;11.73;5.22;;;16.90;99.90;;;;;;5008836;28;20206;-86
2023/07/03 01:48:03;;;;;;;9.98;5.60;;;16.90;99.90;;;;;;5014460;28;20194;-86
2023/07/03 01:50:35;;;;;;;11.63;6.07;;;16.80;99.90;;;;;;5014132;28;20201;-86
2023/07/03 01:53:12;;;;;;;11.73;5.45;;;16.80;99.90;;;;;;5021769;28;20221;-86
2023/07/03 01:55:51;;;;;;;11.23;5.50;;;16.90;99.90;;;;;;5025675;28;20229;-87
2023/07/03 01:58:32;;;;;;;12.32;5.35;;;17.00;99.90;;;;;;5001408;28;20203;-86
2023/07/03 02:01:06;;;;;;;9.32;5.28;;;17.10;99.90;;;;;;5000078;28;20216;-86
2023/07/03 02:03:44;;;;;;;11.82;5.57;;;17.20;99.90;;;;;;5015565;28;20205;-87
2023/07/03 02:06:21;;;;;;;13.18;5.72;;;17.20;99.90;;;;;;5005750;28;20199;-86
2023/07/03 02:08:54;;;;;;;10.80;5.20;;;17.30;99.90;;;;;;4995363;28;20269;-85
2023/07/03 02:11:30;;;;;;;10.27;5.05;;;17.50;99.90;;;;;;4994192;28;20286;-85
2023/07/03 02:14:01;;;;;;;10.07;5.10;;;17.60;99.90;;;;;;5001692;28;20200;-84
2023/07/03 02:16:32;;;;;;;10.18;4.80;;;17.70;99.90;;;;;;5012590;28;20232;-85
2023/07/03 02:19:05;;;;;;;10.27;5.32;;;17.70;99.90;;;;;;5013478;28;20194;-86
2023/07/03 02:21:38;;;;;;;10.35;5.05;;;17.80;99.90;;;;;;5013674;28;20229;-87
2023/07/03 02:24:12;;;;;;;16.25;5.25;;;17.90;99.90;;;;;;5013328;28;20202;-85
2023/07/03 02:26:45;;;;;;;11.10;5.00;;;18.00;99.90;;;;;;5013742;28;20192;-84
2023/07/03 02:29:17;;;;;;;9.85;4.60;;;18.10;99.90;;;;;;5014250;28;20289;-85
2023/07/03 02:31:48;;;;;;;8.43;4.55;;;18.20;99.90;;;;;;5010738;28;20849;-83
2023/07/03 02:34:20;;;;;;;9.10;4.47;;;18.20;99.90;;;;;;5012887;28;20209;-84
2023/07/03 02:36:53;;;;;;;10.00;4.70;;;18.20;99.90;;;;;;5013220;28;20225;-84
2023/07/03 02:39:24;;;;;;;12.43;4.60;;;18.20;99.90;;;;;;5011445;28;20214;-84
2023/07/03 02:41:57;;;;;;;10.80;4.25;;;18.30;99.90;;;;;;4994446;28;20224;-84
2023/07/03 02:44:29;;;;;;;8.63;4.43;;;18.30;99.90;;;;;;5008819;28;20229;-85
2023/07/03 02:47:00;;;;;;;10.68;4.45;;;18.40;99.90;;;;;;5013489;28;20198;-83
2023/07/03 02:49:32;;;;;;;10.73;4.13;;;18.40;99.90;;;;;;5012245;28;20198;-84
2023/07/03 02:52:04;;;;;;;12.05;4.50;;;18.50;99.90;;;;;;5012711;28;20266;-85
2023/07/03 02:54:35;;;;;;;11.20;3.90;;;18.60;99.90;;;;;;5013423;28;20202;-85
2023/07/03 02:57:09;;;;;;;8.55;3.90;;;18.60;99.90;;;;;;5016608;28;20688;-86
2023/07/03 02:59:40;;;;;;;7.97;4.10;;;18.60;99.90;;;;;;5012839;28;20198;-85
2023/07/03 03:02:11;;;;;;;11.85;3.88;;;18.70;99.90;;;;;;5012847;28;20668;-84
2023/07/03 03:04:45;;;;;;;10.43;3.50;;;18.70;99.90;;;;;;5013085;28;20202;-85
2023/07/03 03:07:17;;;;;;;8.18;3.17;;;18.70;99.90;;;;;;5016137;28;20213;-84
2023/07/03 03:09:48;;;;;;;9.45;3.20;;;18.80;99.90;;;;;;5014163;28;20194;-84
2023/07/03 03:12:21;;;;;;;7.47;3.10;;;18.70;99.90;;;;;;5012431;28;20197;-84
2023/07/03 03:14:52;;;;;;;7.22;3.35;;;18.80;99.90;;;;;;4995512;28;20669;-84
2023/07/03 03:17:24;;;;;;;8.98;3.40;;;18.90;99.90;;;;;;4992496;28;20231;-83
2023/07/03 03:19:55;;;;;;;6.00;2.85;;;19.00;99.90;;;;;;4993378;28;20205;-84
2023/07/03 03:22:26;;;;;;;8.25;2.83;;;19.00;99.90;;;;;;4993126;28;20210;-83
2023/07/03 03:24:57;;;;;;;8.75;3.15;;;19.00;99.90;;;;;;4997899;28;20201;-83
2023/07/03 03:27:30;;;;;;;6.13;2.95;;;19.00;99.90;;;;;;5012306;28;20650;-84
2023/07/03 03:30:03;;;;;;;6.22;2.72;;;18.90;99.90;;;;;;5011316;28;20201;-84
2023/07/03 03:32:35;;;;;;;11.40;3.05;;;18.90;99.90;;;;;;4993263;28;20202;-84
2023/07/03 03:35:06;;;;;;;8.43;2.90;;;18.80;99.90;;;;;;4992236;28;20654;-83
2023/07/03 03:37:37;;;;;;;5.20;2.65;;;18.80;99.90;;;;;;4992105;28;20401;-84
2023/07/03 03:40:09;;;;;;;5.40;2.33;;;18.70;99.90;;;;;;4993711;28;20202;-84
2023/07/03 03:42:42;;;;;;;8.23;3.08;;;18.80;99.90;;;;;;5011681;28;20657;-84
2023/07/03 03:45:14;;;;;;;7.35;2.60;;;18.80;99.90;;;;;;5011370;28;20292;-84
2023/07/03 03:47:45;;;;;;;6.32;2.55;;;18.80;99.90;;;;;;5010858;28;20210;-84
2023/07/03 03:50:16;;;;;;;9.18;2.95;;;18.70;99.90;;;;;;5013646;28;20612;-82
2023/07/03 03:52:47;;;;;;;6.93;2.38;;;18.80;99.90;;;;;;5011775;28;20729;-85
2023/07/03 03:55:19;;;;;;;4.88;2.10;;;18.70;99.90;;;;;;5011649;28;20268;-85
2023/07/03 03:57:52;;;;;;;5.50;2.35;;;18.80;99.90;;;;;;5010161;28;20232;-85
2023/07/03 04:00:23;;;;;;;7.80;2.38;;;18.80;99.90;;;;;;5011209;28;20202;-85
2023/07/03 04:02:54;;;;;;;5.50;2.00;;;18.80;99.90;;;;;;5011253;28;20569;-85
2023/07/03 04:05:25;;;;;;;4.90;1.67;;;18.80;99.90;;;;;;4998811;28;20210;-85
2023/07/03 04:07:56;;;;;;;5.38;1.65;;;18.80;99.90;;;;;;4991915;28;20221;-84
2023/07/03 04:10:28;;;;;;;6.53;1.58;;;18.80;99.90;;;;;;4999221;28;20198;-85
2023/07/03 04:13:01;;;;;;;5.97;2.00;;;18.80;99.90;;;;;;5011903;28;20209;-85
2023/07/03 04:15:35;;;;;;;4.38;1.95;;;18.80;99.90;;;;;;5010794;28;20732;-86
2023/07/03 04:18:06;;;;;;;6.38;1.75;;;18.80;99.90;;;;;;5011558;28;20202;-87
2023/07/03 04:20:37;;;;;;;4.78;1.60;;;18.90;99.90;;;;;;5011580;28;20202;-87
2023/07/03 04:23:09;;;;;;;5.90;1.55;;;18.90;99.90;;;;;;4993832;28;20215;-87
2023/07/03 04:25:40;;;;;;;3.97;1.40;;;18.90;99.90;;;;;;4992044;28;20199;-86
2023/07/03 04:28:14;;;;;;;3.83;1.40;;;19.00;99.90;;;;;;5002527;28;20194;-87
2023/07/03 04:30:45;;;;;;;9.15;2.03;;;19.00;99.90;;;;;;5005323;28;20292;-85
2023/07/03 04:33:19;;;;;;;9.30;2.65;;;19.10;99.90;;;;;;5010305;28;20643;-85
2023/07/03 04:35:52;;;;;;;8.48;2.58;;;19.00;99.90;;;;;;5009711;28;20204;-86
2023/07/03 04:38:24;;;;;;;8.98;2.70;;;19.00;99.90;;;;;;5002977;28;20214;-87
2023/07/03 04:40:56;;;;;;;7.88;2.60;;;18.90;99.90;;;;;;5011761;28;20228;-86
2023/07/03 04:43:29;;;;;;;8.77;2.45;;;18.80;99.90;;;;;;5011555;28;20591;-86
2023/07/03 04:46:03;;;;;;;7.70;2.40;;;18.80;99.90;;;;;;5026793;28;20206;-86
2023/07/03 04:48:34;;;;;;;6.00;2.13;;;18.90;99.90;;;;;;5011916;28;20220;-86
2023/07/03 04:51:05;;;;;;;7.18;2.28;;;18.90;99.90;;;;;;5011518;28;20222;-86
2023/07/03 04:53:44;;;;;;;6.18;2.28;;;19.00;99.90;;;;;;5002560;28;20235;-86
2023/07/03 04:56:15;;;;;;;9.10;2.60;;;19.00;99.90;;;;;;5004490;28;20221;-85
2023/07/03 04:58:49;;;;;;;6.45;2.40;;;19.00;99.90;;;;;;5011051;28;20198;-86
2023/07/03 05:01:20;;;;;;;6.78;2.10;;;19.00;99.90;;;;;;5009687;28;20304;-85
2023/07/03 05:03:51;;;;;;;6.63;2.17;;;19.00;99.90;;;;;;5010643;28;20194;-86
2023/07/03 05:06:23;;;;;;;5.53;1.80;;;18.90;99.90;;;;;;5011560;28;20564;-83
2023/07/03 05:08:54;;;;;;;7.13;2.35;;;18.90;99.90;;;;;;5011513;28;20216;-84
2023/07/03 05:11:25;;;;;;;10.35;2.30;;;18.90;99.90;;;;;;5011697;28;20248;-85
2023/07/03 05:13:58;;;;;;;7.97;2.63;;;18.90;99.90;;;;;;5026725;28;20229;-84
2023/07/03 05:16:29;;;;;;;7.03;2.22;;;18.80;99.90;;;;;;5033361;28;20221;-85
2023/07/03 05:19:00;;;;;;;6.65;2.40;;;18.80;99.90;;;;;;5031363;28;20188;-84
2023/07/03 05:21:31;;;;;;;6.57;2.20;;;18.70;99.90;;;;;;5025465;28;20202;-84
2023/07/03 05:24:03;;;;;;;4.55;2.10;;;18.70;99.90;;;;;;5026018;28;20198;-84
2023/07/03 05:26:35;;;;;;;9.50;2.45;;;18.70;99.90;;;;;;5002947;28;20236;-84
2023/07/03 05:29:08;;;;;;;7.03;2.45;;;18.70;99.90;;;;;;4995371;28;20203;-85
2023/07/03 05:31:39;;;;;;;9.20;2.20;;;18.60;99.90;;;;;;4996682;28;20191;-86
2023/07/03 05:34:11;;;;;;;5.32;2.17;;;18.60;99.90;;;;;;5012756;28;20198;-87
2023/07/03 05:36:42;;;;;;;8.32;2.20;;;18.60;99.90;;;;;;5014368;28;20222;-85
2023/07/03 05:39:13;;;;;;;7.35;2.90;;;18.60;99.90;;;;;;5019753;28;20284;-85
2023/07/03 05:41:44;;;;;;;7.00;3.50;;;18.50;99.90;;;;;;5021503;28;20202;-86
2023/07/03 05:44:18;;;;;;;8.20;2.90;;;18.40;99.90;;;;;;5016233;28;20605;-86
2023/07/03 05:46:49;;;;;;;5.72;2.15;;;18.40;99.90;;;;;;5013805;28;20202;-86
2023/07/03 05:49:20;;;;;;;7.60;2.05;;;18.40;99.90;;;;;;5013151;28;20202;-85
2023/07/03 05:51:53;;;;;;;7.13;2.35;;;18.40;99.90;;;;;;5014137;28;20240;-85
2023/07/03 05:54:24;;;;;;;7.43;2.20;;;18.30;99.90;;;;;;5013578;28;20202;-85
2023/07/03 05:57:06;;;;;;;6.80;1.88;;;18.30;99.90;;;;;;5014016;28;20715;-85
2023/07/03 05:59:43;;;;;;;4.13;1.70;;;18.30;99.90;;;;;;5013930;28;20200;-85
2023/07/03 06:02:15;;;;;;;5.57;2.38;;;18.30;99.90;;;;;;5013815;28;20231;-86
2023/07/03 06:04:46;;;;;;;5.20;1.85;;;18.30;99.90;;;;;;4998198;28;20209;-86
2023/07/03 06:07:18;;;;;;;4.32;1.55;;;18.30;99.90;;;;;;5004016;28;20194;-87
2023/07/03 06:09:50;;;;;;;7.60;1.90;;;18.20;99.90;;;;;;5014484;28;20194;-86
2023/07/03 06:12:21;;;;;;;4.82;2.00;;;18.20;99.90;;;;;;5015170;28;20202;-86
2023/07/03 06:14:55;;;;;;;4.65;2.00;;;18.20;99.90;;;;;;5014080;28;20198;-87
2023/07/03 06:17:28;;;;;;;8.05;1.75;;;18.10;99.90;;;;;;4996335;28;20696;-86
2023/07/03 06:19:59;;;;;;;8.88;2.38;;;18.10;99.90;;;;;;5007524;28;20269;-86
2023/07/03 06:22:30;;;;;;;6.05;2.00;;;18.10;99.90;;;;;;4994779;28;20226;-87
2023/07/03 06:25:02;;;;;;;7.00;1.90;;;18.00;99.90;;;;;;5001374;28;20229;-86
2023/07/03 06:27:33;;;;;;;6.35;1.95;;;18.00;99.90;;;;;;5014201;28;20661;-87
2023/07/03 06:30:07;;;;;;;4.72;1.83;;;18.00;99.90;;;;;;4997006;28;20205;-86
2023/07/03 06:32:39;;;;;;;5.88;2.13;;;18.00;99.90;;;;;;4993972;28;20198;-86
2023/07/03 06:35:11;;;;;;;3.35;1.80;;;18.00;99.90;;;;;;4983705;28;20198;-85
2023/07/03 06:37:45;;;;;;;5.43;1.77;;;18.00;99.90;;;;;;5011658;28;20226;-85
2023/07/03 06:40:18;;;;;;;6.15;2.10;;;17.90;99.90;;;;;;5013066;28;20620;-85
2023/07/03 06:42:49;;;;;;;6.47;2.17;;;17.90;99.90;;;;;;5006915;28;20202;-86
2023/07/03 06:45:24;;;;;;;5.18;2.00;;;17.80;99.90;;;;;;5012997;28;20669;-86
2023/07/03 06:47:55;;;;;;;4.32;1.80;;;17.80;99.90;;;;;;4999888;28;20924;-86
2023/07/03 06:50:26;;;;;;;5.15;1.95;;;17.70;99.90;;;;;;4994953;28;20722;-85
2023/07/03 06:52:58;;;;;;;5.72;2.38;;;17.70;99.90;;;;;;5008815;28;20230;-85
2023/07/03 06:55:29;;;;;;;5.88;2.03;;;17.70;99.90;;;;;;5000385;28;20214;-86
2023/07/03 06:58:00;;;;;;;7.05;1.98;;;17.60;99.90;;;;;;5006937;28;20726;-85
2023/07/03 07:00:35;;;;;;;5.05;1.70;;;17.60;99.90;;;;;;5007075;28;20657;-87
2023/07/03 07:03:07;;;;;;;3.55;1.70;;;17.60;99.90;;;;;;5011387;28;20193;-86
2023/07/03 07:05:38;;;;;;;4.28;2.03;;;17.50;99.90;;;;;;5009043;28;20202;-86
2023/07/03 07:08:16;;;;;;;4.88;1.75;;;17.50;99.90;;;;;;4993316;28;20198;-85
2023/07/03 07:10:47;;;;;;;4.60;1.70;;;17.50;99.90;;;;;;4997778;28;20197;-86
2023/07/03 07:13:20;;;;;;;5.47;1.67;;;17.40;99.90;;;;;;4993320;28;20199;-85
2023/07/03 07:15:54;;;;;;;7.28;2.00;;;17.50;99.90;;;;;;5009355;28;20282;-86
2023/07/03 07:18:25;;;;;;;5.50;2.00;;;17.40;99.90;;;;;;5012933;28;20236;-85
2023/07/03 07:20:56;;;;;;;7.03;1.98;;;17.40;99.90;;;;;;5012950;28;20289;-86
2023/07/03 07:23:27;;;;;;;4.88;1.67;;;17.40;99.90;;;;;;5012929;28;20632;-86
2023/07/03 07:25:59;;;;;;;7.22;2.20;;;17.40;99.90;;;;;;4996896;28;20231;-84
2023/07/03 07:28:30;;;;;;;6.30;1.77;;;17.40;99.90;;;;;;4993987;28;20215;-85
2023/07/03 07:31:03;;;;;;;5.22;1.50;;;17.40;99.90;;;;;;4993461;28;20202;-86
2023/07/03 07:33:36;;;;;;;4.88;1.63;;;17.40;99.90;;;;;;4994357;28;20590;-84
2023/07/03 07:36:08;;;;;;;4.00;1.30;;;17.30;99.90;;;;;;4993494;28;20202;-83
2023/07/03 07:38:39;;;;;;;2.75;1.38;;;17.30;99.90;;;;;;4992574;28;20225;-84
2023/07/03 07:41:10;;;;;;;4.38;1.70;;;17.30;99.90;;;;;;5009238;28;20216;-86
2023/07/03 07:43:41;;;;;;;8.25;3.20;;;17.30;99.90;;;;;;5012344;28;20233;-85
2023/07/03 07:46:15;;;;;;;4.82;2.30;;;17.20;99.90;;;;;;5001346;28;20202;-85
2023/07/03 07:48:48;;;;;;;6.72;2.00;;;17.30;99.90;;;;;;4996374;28;20202;-85
2023/07/03 07:51:19;;;;;;;5.78;1.60;;;17.30;99.90;;;;;;5011496;28;20198;-84
2023/07/03 07:53:52;;;;;;;9.13;1.55;;;17.30;99.90;;;;;;5011911;28;20712;-84
2023/07/03 07:56:24;;;;;;;3.85;1.30;;;17.30;99.90;;;;;;5011932;28;20285;-84
2023/07/03 07:58:57;;;;;;;5.03;1.40;;;17.20;99.90;;;;;;5011365;28;20225;-85
2023/07/03 08:01:30;;;;;;;5.22;1.42;;;17.20;99.90;;;;;;5011818;28;20194;-85
2023/07/03 08:04:01;;;;;;;2.83;1.13;;;17.20;99.90;;;;;;4995211;28;20207;-84
2023/07/03 08:06:32;;;;;;;4.63;1.45;;;17.20;99.90;;;;;;4992573;28;20694;-85
2023/07/03 08:09:04;;;;;;;3.70;1.38;;;17.20;99.90;;;;;;4994996;28;20190;-85
2023/07/03 08:11:35;;;;;;;4.32;1.40;;;17.20;99.90;;;;;;5012446;28;20197;-84
2023/07/03 08:14:07;;;;;;;4.22;1.40;;;17.20;99.90;;;;;;5012245;28;20572;-86
2023/07/03 08:16:40;;;;;;;3.20;1.10;;;17.10;99.90;;;;;;5017665;28;20206;-86
2023/07/03 08:19:11;;;;;;;3.20;1.40;;;17.20;99.90;;;;;;5008909;28;20236;-86
2023/07/03 08:21:42;;;;;;;4.25;1.65;;;17.10;99.90;;;;;;4992069;28;20205;-85
2023/07/03 08:24:15;;;;;;;3.55;1.55;;;17.10;99.90;;;;;;4991872;28;20214;-84
2023/07/03 08:26:50;;;;;;;3.35;1.27;;;17.10;99.90;;;;;;4991788;28;20214;-84
2023/07/03 08:29:22;;;;;;;2.65;1.27;;;17.10;99.90;;;;;;5007715;28;20197;-84
2023/07/03 08:31:58;;;;;;;3.75;1.52;;;17.00;99.90;;;;;;5010169;28;20194;-86
2023/07/03 08:34:29;;;;;;;2.92;1.50;;;17.00;99.90;;;;;;5010921;28;20205;-82
2023/07/03 08:37:00;;;;;;;4.32;1.27;;;17.00;99.90;;;;;;5001801;28;20202;-83
2023/07/03 08:39:31;;;;;;;5.30;1.33;;;17.00;99.90;;;;;;4992180;28;20653;-83
2023/07/03 08:42:06;;;;;;;3.80;1.23;;;17.00;99.90;;;;;;4994144;28;20297;-82
2023/07/03 08:44:38;;;;;;;3.38;1.65;;;17.00;99.90;;;;;;5011351;28;20201;-81
2023/07/03 08:47:16;;;;;;;5.25;1.83;;;17.00;99.90;;;;;;5008022;28;20190;-81
2023/07/03 08:49:48;;;;;;;5.50;2.25;;;17.00;99.90;;;;;;5010824;28;20539;-82
2023/07/03 08:52:27;;;;;;;5.00;2.70;;;17.00;99.90;;;;;;5011196;28;20233;-83
2023/07/03 08:54:59;;;;;;;5.97;2.97;;;17.00;99.90;;;;;;4992614;28;20206;-82
2023/07/03 08:57:33;;;;;;;6.25;1.50;;;17.00;99.90;;;;;;4991229;28;20225;-82
2023/07/03 09:00:06;;;;;;;3.13;1.30;;;16.90;99.90;;;;;;4992749;28;20198;-83
2023/07/03 09:02:44;;;;;;;4.07;1.25;;;16.90;99.90;;;;;;4991280;28;20680;-83
2023/07/03 09:05:40;;;;;;;4.47;1.42;;;16.90;99.90;;;;;;5001989;28;20201;-83
2023/07/03 09:08:17;;;;;;;4.22;1.50;;;16.80;99.90;;;;;;5010693;28;20194;-80
2023/07/03 09:10:51;;;;;;;5.68;1.52;;;16.90;99.90;;;;;;5003417;28;20198;-82
2023/07/03 09:13:28;;;;;;;8.27;1.88;;;16.80;99.90;;;;;;4992099;28;20213;-83
2023/07/03 09:16:06;;;;;;;4.57;1.35;;;16.80;99.90;;;;;;4995085;28;20203;-80
2023/07/03 09:18:45;;;;;;;3.58;1.30;;;16.90;99.90;;;;;;5004904;28;20715;-82
2023/07/03 09:21:16;;;;;;;5.88;1.58;;;16.80;99.90;;;;;;5012883;28;20203;-82
2023/07/03 09:23:56;;;;;;;3.83;1.40;;;16.90;99.90;;;;;;4994645;28;20573;-82
2023/07/03 09:26:33;;;;;;;4.38;1.10;;;16.80;99.90;;;;;;4994910;28;20226;-81
2023/07/03 09:29:05;;;;;;;4.88;1.40;;;16.80;99.90;;;;;;5011854;28;20625;-82
2023/07/03 09:31:37;;;;;;;6.30;1.55;;;16.80;99.90;;;;;;5014058;28;20209;-81
2023/07/03 09:34:10;;;;;;;4.65;1.20;;;16.80;99.90;;;;;;5016723;28;20201;-82
2023/07/03 09:36:45;;;;;;;2.95;1.30;;;16.80;99.90;;;;;;5017196;28;20202;-83
2023/07/03 09:39:20;;;;;;;3.67;1.30;;;16.80;99.90;;;;;;5013025;28;20590;-84
2023/07/03 09:41:51;;;;;;;2.53;1.40;;;16.80;99.90;;;;;;5014544;28;20190;-84
2023/07/03 09:44:24;;;;;;;3.15;1.35;;;16.80;99.90;;;;;;5013508;28;20260;-85
2023/07/03 09:47:01;;;;;;;4.45;1.70;;;16.80;99.90;;;;;;5003425;28;20638;-83
2023/07/03 09:49:34;;;;;;;5.82;1.58;;;16.80;99.90;;;;;;4998150;28;20198;-83
2023/07/03 09:52:05;;;;;;;4.82;1.73;;;16.80;99.90;;;;;;5005331;28;20241;-83
2023/07/03 09:54:44;;;;;;;4.43;1.60;;;16.80;99.90;;;;;;5034597;28;20198;-83
2023/07/03 09:57:28;;;;;;;5.45;1.67;;;16.80;99.90;;;;;;5027262;28;20208;-83
2023/07/03 10:00:12;;;;;;;4.30;1.45;;;16.70;99.90;;;;;;5029950;28;20561;-83
2023/07/03 10:02:44;;;;;;;4.82;1.73;;;16.60;99.90;;;;;;5014772;28;20210;-83
2023/07/03 10:05:21;;;;;;;4.07;1.63;;;16.60;99.90;;;;;;5001562;28;20225;-83
2023/07/03 10:07:57;;;;;;;4.40;1.63;;;16.60;99.90;;;;;;4995881;28;20202;-83
2023/07/03 10:10:28;;;;;;;3.45;1.58;;;16.60;99.90;;;;;;4995354;28;20203;-83
2023/07/03 10:13:05;;;;;;;6.05;1.90;;;16.60;99.90;;;;;;5013603;28;20198;-82
2023/07/03 10:15:40;;;;;;;4.80;2.20;;;16.60;99.90;;;;;;5018130;28;20206;-81
2023/07/03 10:18:18;;;;;;;4.57;2.17;;;16.50;99.90;;;;;;5013871;28;20685;-82
2023/07/03 10:20:54;;;;;;;6.32;2.40;;;16.50;99.90;;;;;;5013628;28;20208;-83
2023/07/03 10:23:28;;;;;;;7.68;3.10;;;16.50;99.90;;;;;;5013086;28;20204;-82
2023/07/03 10:26:04;;;;;;;6.05;2.85;;;16.50;99.90;;;;;;5013480;28;20223;-83
2023/07/03 10:28:39;;;;;;;9.95;3.17;;;16.50;99.90;;;;;;5012442;28;20212;-81
2023/07/03 10:31:15;;;;;;;6.15;2.70;;;16.40;99.90;;;;;;5013136;28;20200;-83
2023/07/03 10:33:50;;;;;;;7.38;2.90;;;16.40;99.90;;;;;;5013182;28;20236;-83
2023/07/03 10:36:27;;;;;;;7.18;2.90;;;16.40;99.90;;;;;;5012330;28;20197;-83
2023/07/03 10:39:05;;;;;;;7.97;3.20;;;16.40;99.90;;;;;;5013058;28;20225;-83
2023/07/03 10:41:45;;;;;;;4.90;2.38;;;16.40;99.90;;;;;;5011305;28;20201;-85
2023/07/03 10:44:19;;;;;;;6.72;2.67;;;16.40;99.90;;;;;;5012826;28;20256;-82
2023/07/03 10:46:57;;;;;;;5.65;2.25;;;16.40;99.90;;;;;;5011475;28;20197;-84
2023/07/03 10:49:32;;;;;;;6.32;2.30;;;16.40;99.90;;;;;;5013132;28;20208;-84
2023/07/03 10:52:17;;;;;;;4.50;2.40;;;16.40;99.90;;;;;;5012066;28;20247;-83
2023/07/03 10:54:56;;;;;;;6.75;2.50;;;16.50;99.90;;;;;;4993357;28;20202;-83
2023/07/03 10:57:33;;;;;;;5.78;2.50;;;16.50;99.90;;;;;;4993223;28;20195;-84
2023/07/03 11:00:11;;;;;;;5.32;2.47;;;16.40;99.90;;;;;;4993488;28;20234;-83
2023/07/03 11:02:52;;;;;;;6.30;2.55;;;16.40;99.90;;;;;;5002609;28;20236;-83
2023/07/03 11:05:29;;;;;;;7.55;2.78;;;16.40;99.90;;;;;;5012730;28;20204;-83
2023/07/03 11:08:09;;;;;;;6.88;2.80;;;16.40;99.90;;;;;;5012766;28;20208;-84
2023/07/03 11:10:45;;;;;;;7.13;2.60;;;16.40;99.90;;;;;;4998824;28;20203;-84
2023/07/03 11:13:24;;;;;;;7.35;2.80;;;16.40;99.90;;;;;;4995720;28;20669;-84
2023/07/03 11:16:04;;;;;;;5.57;2.65;;;16.40;99.90;;;;;;5012488;28;20200;-84
2023/07/03 11:18:59;;;;;;;8.25;3.30;;;16.40;99.90;;;;;;5023721;28;20221;-85
2023/07/03 11:21:39;;;;;;;6.85;2.97;;;16.40;99.90;;;;;;5025290;28;20206;-83
2023/07/03 11:27:36;;;;;;;7.30;3.20;;;16.40;99.90;;;;;;5007446;28;20625;-83
2023/07/03 11:30:16;;;;;;;8.18;3.22;;;16.40;99.90;;;;;;5015863;28;20202;-84
2023/07/03 11:32:49;;;;;;;7.60;3.42;;;16.40;99.90;;;;;;5026212;28;20198;-85
2023/07/03 11:35:27;;;;;;;6.88;3.47;;;16.40;99.90;;;;;;5021097;28;20197;-84
2023/07/03 11:38:10;;;;;;;8.63;3.33;;;16.40;99.90;;;;;;5021529;28;20202;-84
2023/07/03 11:41:08;;;;;;;4.95;3.17;;;16.40;99.90;;;;;;5020571;28;20565;-84
2023/07/03 11:43:50;;;;;;;7.05;3.42;;;16.30;99.90;;;;;;5013451;28;20199;-84
2023/07/03 11:46:32;;;;;;;6.47;2.88;;;16.30;99.90;;;;;;5001382;28;20205;-84
2023/07/03 11:49:15;;;;;;;7.13;3.58;;;16.30;99.90;;;;;;5000064;28;20210;-85
2023/07/03 11:52:08;;;;;;;8.85;3.60;;;16.30;99.90;;;;;;5015280;28;20233;-86
2023/07/03 11:54:46;;;;;;;6.93;3.45;;;16.20;99.90;;;;;;5019019;28;20190;-85
2023/07/03 11:57:38;;;;;;;8.93;3.20;;;16.20;99.90;;;;;;5018750;28;20208;-84
2023/07/03 12:00:31;;;;;;;4.28;2.88;;;16.20;99.90;;;;;;5019165;28;20233;-84
2023/07/03 12:03:10;;;;;;;6.82;2.90;;;16.20;99.90;;;;;;5002603;28;20202;-84
2023/07/03 12:06:04;;;;;;;6.40;2.97;;;16.20;99.90;;;;;;5017401;28;20194;-84
2023/07/03 12:08:50;;;;;;;5.82;2.30;;;16.20;99.90;;;;;;5003659;28;20209;-83
2023/07/03 12:11:26;;;;;;;6.35;2.47;;;16.10;99.90;;;;;;5000707;28;20220;-85
2023/07/03 12:14:01;;;;;;;6.28;2.80;;;16.20;99.90;;;;;;4998801;28;21094;-84
2023/07/03 12:16:53;;;;;;;6.18;2.90;;;16.20;99.90;;;;;;5010143;28;20630;-85
2023/07/03 12:22:38;;;;;;;5.32;2.80;;;16.10;99.90;;;;;;4995886;28;20210;-83
2023/07/03 12:25:15;;;;;;;5.80;2.88;;;16.10;99.90;;;;;;5013857;28;20217;-82
2023/07/03 12:27:47;;;;;;;5.40;2.40;;;16.10;99.90;;;;;;5021581;28;20240;-82
2023/07/03 12:30:36;;;;;;;5.95;2.53;;;16.00;99.90;;;;;;5016214;28;20194;-85
2023/07/03 12:35:59;;;;;;;4.18;2.90;;;16.10;99.90;;;;;;5018590;28;20297;-85
2023/07/03 12:38:37;;;;;;;8.52;3.50;;;16.10;99.90;;;;;;5007462;28;20185;-84
2023/07/03 12:41:17;;;;;;;6.60;2.90;;;16.00;99.90;;;;;;5022543;28;20192;-83
2023/07/03 12:43:55;;;;;;;5.45;2.97;;;16.00;99.90;;;;;;5025538;28;20225;-85
2023/07/03 12:46:38;;;;;;;6.82;3.40;;;16.00;99.90;;;;;;5025105;28;20196;-83
2023/07/03 12:52:13;;;;;;;9.45;4.05;;;16.00;99.90;;;;;;5012064;28;20230;-84
2023/07/03 12:54:57;;;;;;;7.53;4.00;;;16.00;99.90;;;;;;5002790;28;20202;-84
2023/07/03 12:57:30;;;;;;;9.93;4.28;;;15.90;99.90;;;;;;5022068;28;20224;-84
2023/07/03 13:00:01;;;;;;;8.13;4.57;;;15.90;99.90;;;;;;5014872;28;20230;-82
2023/07/03 13:02:37;;;;;;;6.28;3.88;;;15.80;99.90;;;;;;5014376;28;20197;-82
2023/07/03 13:05:12;;;;;;;6.93;3.65;;;15.90;99.90;;;;;;5014888;28;20197;-82
2023/07/03 13:07:46;;;;;;;7.55;3.92;;;15.90;99.90;;;;;;5013759;28;20609;-83
2023/07/03 13:10:19;;;;;;;6.80;3.50;;;15.90;99.90;;;;;;4995295;28;20552;-84
2023/07/03 13:13:07;;;;;;;7.53;3.80;;;15.80;99.90;;;;;;4995224;28;20202;-83
2023/07/03 13:15:39;;;;;;;5.70;3.17;;;15.80;99.90;;;;;;4995324;28;20692;-83
2023/07/03 13:18:18;;;;;;;6.97;3.80;;;15.80;99.90;;;;;;4994608;28;20202;-82
2023/07/03 13:20:59;;;;;;;6.25;3.58;;;15.80;99.90;;;;;;5002141;28;20221;-82
2023/07/03 13:23:35;;;;;;;5.90;3.63;;;15.80;99.90;;;;;;5014275;28;20252;-82
2023/07/03 13:26:08;;;;;;;6.80;3.60;;;15.80;99.90;;;;;;5012868;28;20213;-83
2023/07/03 13:28:40;;;;;;;5.70;3.25;;;15.90;99.90;;;;;;5014414;28;20546;-82
2023/07/03 13:31:13;;;;;;;6.65;3.60;;;15.90;99.90;;;;;;5014082;28;20198;-83
2023/07/03 13:34:05;;;;;;;5.03;3.28;;;15.90;99.90;;;;;;5014404;28;20206;-83